Virginiborg — PBDL — position and weather

sailwx.info

Track history (hours):
 
Tides and Currents Weather Stations Pressure Air Temp Water Temp Dewpoint Dewpoint Depression Visibility Wind Speed Wind Dir Waves Ship Positions

Virginiborg

Last reported at 2015-May-21 13:12 UTC. Time now 2015-May-22 22:09 UTC.
Position N 45°01' W 086°22'.

Length 132 m; draft 6 m.

Type: Cargo ship. MMSI: 244632000.

Date/timePositionNaut miles runAvg speedWind from/ knotsBaromVisibWave heightAir tempDewpointWater temp
2015-May-21 13:12N 45°01' W 086°22'812.3
2015-May-21 12:33N 45°09' W 086°19'1212.3
2015-May-21 11:33N 45°21' W 086°15'1212.4
2015-May-21 10:33N 45°33' W 086°10'1111.6
2015-May-21 09:33N 45°43' W 086°02'1212.4
2015-May-21 08:33N 45°49' W 085°46'1212.1
2015-May-21 07:33N 45°53' W 085°30'1212.4
2015-May-21 06:33N 45°52' W 085°12'1212.4
2015-May-21 05:33N 45°50' W 084°55'1212.2
2015-May-21 04:33N 45°47' W 084°38'1212.5
2015-May-21 03:34N 45°41' W 084°22'1212.0
2015-May-21 02:33N 45°37' W 084°06'  
2015-May-13 08:33N 45°14' W 074°07'9 8.9
2015-May-13 07:34N 45°17' W 073°56'2 1.7
2015-May-13 06:33N 45°19' W 073°55'1 0.8
2015-May-13 05:33N 45°20' W 073°55'9 8.7
2015-May-13 04:33N 45°24' W 073°44'7 7.2
2015-May-13 03:34N 45°24' W 073°34'3 2.8
2015-May-13 02:24N 45°26' W 073°30'51 3.6
2015-May-12 12:21N 46°11' W 072°54'810.5
2015-May-12 11:33N 46°15' W 072°44'9 9.3
2015-May-12 10:33N 46°20' W 072°32'10 9.7
2015-May-12 09:33N 46°26' W 072°21'9 9.2
2015-May-12 08:32N 46°32' W 072°11'  
Track history (hours):
 
Tides and Currents Weather Stations Pressure Air Temp Water Temp Dewpoint Dewpoint Depression Visibility Wind Speed Wind Dir Waves Ship Positions

Virginiborg

Last reported at 2015-May-21 13:12 UTC. Time now 2015-May-22 22:09 UTC.
Position N 45°01' W 086°22'.

Length 132 m; draft 6 m.

Type: Cargo ship. MMSI: 244632000.

Date/timePositionNaut miles runAvg speedWind from/ knotsBaromVisibWave heightAir tempDewpointWater temp
2015-May-21 13:12N 45°01' W 086°22'812.3
2015-May-21 12:33N 45°09' W 086°19'1212.3
2015-May-21 11:33N 45°21' W 086°15'1212.4
2015-May-21 10:33N 45°33' W 086°10'1111.6
2015-May-21 09:33N 45°43' W 086°02'1212.4
2015-May-21 08:33N 45°49' W 085°46'1212.1
2015-May-21 07:33N 45°53' W 085°30'1212.4
2015-May-21 06:33N 45°52' W 085°12'1212.4
2015-May-21 05:33N 45°50' W 084°55'1212.2
2015-May-21 04:33N 45°47' W 084°38'1212.5
2015-May-21 03:34N 45°41' W 084°22'1212.0
2015-May-21 02:33N 45°37' W 084°06'  
2015-May-13 08:33N 45°14' W 074°07'9 8.9
2015-May-13 07:34N 45°17' W 073°56'2 1.7
2015-May-13 06:33N 45°19' W 073°55'1 0.8
2015-May-13 05:33N 45°20' W 073°55'9 8.7
2015-May-13 04:33N 45°24' W 073°44'7 7.2
2015-May-13 03:34N 45°24' W 073°34'3 2.8
2015-May-13 02:24N 45°26' W 073°30'51 3.6
2015-May-12 12:21N 46°11' W 072°54'810.5
2015-May-12 11:33N 46°15' W 072°44'9 9.3
2015-May-12 10:33N 46°20' W 072°32'10 9.7
2015-May-12 09:33N 46°26' W 072°21'9 9.2
2015-May-12 08:32N 46°32' W 072°11'  

Dump ship's entire track history